KJYOKJQF

Guest
Details From KJYO - Leesburg Executive
To KJQF - Concord Rgnl
Flight Number -
Tags Generated
Created
Modified
Stats Distance 269 nm / 498 km
Max Altitude 0 ft / 0 m
Waypoints 3
Social Downloads 0
Likes 0
Share VATSIM

Download

Looking for another format? Having issues loading an existing format? Contact us
Advertisement - Login to hide

Notes

Generated

Route

KJYO WOKIR KJQF

ID Type Via Altitude Latitude Longitude Leg Dist Tot Dist Heading (true) Name
O KJYO APT - 0 ft / 0 m 39.08512˚ -77.56061˚ - 0 nm - -
WOKIR FIX - 0 ft / 0 m 35.65992˚ -80.48497˚ 248 nm 248 nm 215° / 213° -
O KJQF APT - 0 ft / 0 m 35.37777˚ -80.71139˚ 20 nm 268 nm 213° / 213° -

Altitude Profile

Advertisement - Login to hide

Weather


0- 5 10 15 20 25 30 35+ Temperature / ° C

Clouds and Precipitation
Forecast for 2017-12-13 00:00 UTC. Updated 3 minutes ago

Ground ~20,000 ft ~40,000 ft Winds

KJYO

Details ICAO KJYO (JYO)
Name Leesburg Executive
Region United States
Timezone America/New_York (UTC-5.0)
Stats Elevation 389 ft / 119 m (AMSL)
Location 39.077969° -77.557499°
Runways 1
Magnetic Variation 10.560° W

METAR

KJYO 122115Z AUTO 31012G27KT 10SM SCT060 OVC070 04/M04 A2960 RMK AO2

Decode

TAF

Not found

Departure Runways

ID Width Length Bearing (true) Bearing (mag) Surface Threshold Offset Overrun Length
17 100 ft / 30 m 5,507 ft / 1,679 m 161.36° 171.92° Asphalt 0 ft / 0 m 0 ft / 0 m
35 100 ft / 30 m 5,507 ft / 1,679 m 341.36° 351.92° Asphalt 0 ft / 0 m 0 ft / 0 m

KJQF

Details ICAO KJQF
Name Concord Rgnl
Region United States
Timezone America/New_York (UTC-5.0)
Stats Elevation 690 ft / 210 m (AMSL)
Location 35.387774° -80.709133°
Runways 1
Magnetic Variation 7.872° W

METAR

KJQF 122050Z 30013G22KT 10SM CLR 11/M04 A2970

Decode

TAF

Not found

Destination Runways

ID Width Length Bearing (true) Bearing (mag) Surface Threshold Offset Overrun Length
02 98 ft / 30 m 7,419 ft / 2,261 m 10.42° 18.29° Asphalt 0 ft / 0 m 0 ft / 0 m
20 98 ft / 30 m 7,419 ft / 2,261 m 190.42° 198.29° Asphalt 650 ft / 198 m 0 ft / 0 m

Approach Navaids

Runway Type Ident Frequency Range Bearing (true) Bearing (mag) Slope Elevation
20 Localiser IJQF 111.95 MHz 18 nm / 33 km 190.40° 198.27° - 690 ft / 210 m (AMSL)
20 Glidescope IJQF 111.95 MHz 10 nm / 19 km 190.40° 198.27° 3.00° 690 ft / 210 m (AMSL)
20 DME IJQF 111.95 MHz 18 nm / 33 km - - - 690 ft / 210 m (AMSL)